createdAt,value
2022-09-20T00:01:03.610Z,9.40
2022-09-20T00:06:48.080Z,7.30
2022-09-20T00:08:10.511Z,8.40
2022-09-20T00:12:00.818Z,8.30
2022-09-20T00:13:25.121Z,6.70
2022-09-20T00:14:45.876Z,7.30
2022-09-20T00:16:16.564Z,9.40
2022-09-20T00:18:12.931Z,7.80
2022-09-20T00:19:23.020Z,7.20
2022-09-20T00:20:30.692Z,5.80
2022-09-20T00:21:38.734Z,5.90
2022-09-20T00:22:45.627Z,8.40
2022-09-20T00:23:53.875Z,6.00
2022-09-20T00:25:02.653Z,8.00
2022-09-20T00:26:09.953Z,7.20
2022-09-20T00:27:18.167Z,5.30
2022-09-20T00:28:26.927Z,7.20
2022-09-20T00:29:37.324Z,8.40
2022-09-20T00:30:45.849Z,9.10
2022-09-20T00:31:53.755Z,7.10
2022-09-20T00:32:59.580Z,7.50
2022-09-20T00:34:26.460Z,6.00
2022-09-20T00:35:35.284Z,5.90
2022-09-20T00:36:42.303Z,5.00
2022-09-20T00:37:50.652Z,6.90
2022-09-20T00:39:00.981Z,5.40
2022-09-20T00:40:10.586Z,6.00
2022-09-20T00:41:17.217Z,7.80
2022-09-20T00:42:30.017Z,6.10
2022-09-20T00:43:45.019Z,7.70
2022-09-20T00:44:52.164Z,7.40
2022-09-20T00:46:04.886Z,7.40
2022-09-20T00:47:34.344Z,4.60
2022-09-20T00:48:42.148Z,8.10
2022-09-20T00:49:49.192Z,5.40
2022-09-20T00:50:58.338Z,6.60
2022-09-20T00:52:04.320Z,6.60
2022-09-20T00:53:12.811Z,7.30
2022-09-20T00:54:20.993Z,6.40
2022-09-20T00:55:28.779Z,5.10
2022-09-20T00:56:39.419Z,5.70
2022-09-20T00:57:49.051Z,5.00
2022-09-20T00:59:04.760Z,7.90
2022-09-20T01:00:12.801Z,4.10
2022-09-20T01:01:25.562Z,7.90
2022-09-20T01:02:31.854Z,5.00
2022-09-20T01:03:39.215Z,6.50
2022-09-20T01:04:46.771Z,5.80
2022-09-20T01:05:56.627Z,9.50
2022-09-20T01:07:04.418Z,7.90
2022-09-20T01:08:11.014Z,7.20
2022-09-20T01:09:17.738Z,12.10
2022-09-20T01:10:24.362Z,7.10
2022-09-20T01:11:32.963Z,6.00
2022-09-20T01:24:54.550Z,7.70
2022-09-20T01:30:27.747Z,6.30
2022-09-20T01:31:37.472Z,7.80
2022-09-20T01:33:22.359Z,4.90
2022-09-20T01:34:31.577Z,6.30
2022-09-20T01:35:37.528Z,6.90
2022-09-20T01:36:50.507Z,5.90
2022-09-20T01:38:08.453Z,4.70
2022-09-20T01:39:36.015Z,4.70
2022-09-20T01:40:51.440Z,6.70
2022-09-20T01:42:06.605Z,4.70
2022-09-20T01:43:31.765Z,7.60
2022-09-20T01:45:02.577Z,5.30
2022-09-20T01:46:19.907Z,5.90
2022-09-20T01:47:40.554Z,6.30
2022-09-20T01:48:48.469Z,4.70
2022-09-20T01:50:46.388Z,6.40
2022-09-20T01:52:15.206Z,6.10
2022-09-20T01:53:39.715Z,6.30
2022-09-20T01:55:05.142Z,8.90
2022-09-20T01:56:35.530Z,5.60
2022-09-20T01:57:48.314Z,5.80
2022-09-20T01:59:24.722Z,6.10
2022-09-20T02:00:59.091Z,6.60
2022-09-20T02:02:11.584Z,6.40
2022-09-20T02:03:56.007Z,5.10
2022-09-20T02:05:24.083Z,6.70
2022-09-20T02:07:12.702Z,4.10
2022-09-20T02:11:13.472Z,7.10
2022-09-20T02:12:40.348Z,6.20
2022-09-20T02:14:03.116Z,9.60
2022-09-20T02:15:46.550Z,5.60
2022-09-20T02:17:16.119Z,6.00
2022-09-20T02:18:53.714Z,6.10
2022-09-20T02:20:31.649Z,5.10
2022-09-20T02:21:47.302Z,6.70
2022-09-20T02:23:23.432Z,6.20
2022-09-20T02:24:45.239Z,5.70
2022-09-20T02:26:12.335Z,5.80
2022-09-20T02:27:33.896Z,6.90
2022-09-20T02:28:50.747Z,7.70
2022-09-20T02:30:26.647Z,5.30
2022-09-20T02:31:49.886Z,5.80
2022-09-20T02:42:20.294Z,5.60
2022-09-20T02:44:07.903Z,6.50
2022-09-20T02:45:51.640Z,7.30
2022-09-20T02:47:49.396Z,4.60
2022-09-20T02:51:49.475Z,6.20
2022-09-20T02:53:53.954Z,6.70
2022-09-20T02:57:57.571Z,5.60
2022-09-20T02:59:28.490Z,6.50
2022-09-20T03:00:57.368Z,5.40
2022-09-20T03:02:04.043Z,4.70
2022-09-20T03:03:21.993Z,5.50
2022-09-20T03:05:15.539Z,5.00
2022-09-20T03:06:49.871Z,4.40
2022-09-20T03:21:03.780Z,6.70
2022-09-20T03:22:38.894Z,3.60
2022-09-20T03:24:29.183Z,5.20
2022-09-20T03:25:41.313Z,5.20
2022-09-20T03:27:08.168Z,4.00
2022-09-20T03:28:26.182Z,3.50
2022-09-20T03:29:41.791Z,4.20
2022-09-20T03:31:09.414Z,3.50
2022-09-20T03:32:25.812Z,4.30
2022-09-20T03:33:56.012Z,3.70
2022-09-20T03:35:17.459Z,4.40
2022-09-20T03:36:28.819Z,3.70
2022-09-20T03:38:08.526Z,3.70
2022-09-20T03:39:48.921Z,3.60
2022-09-20T03:41:07.119Z,5.60
2022-09-20T03:42:38.797Z,3.90
2022-09-20T03:54:21.626Z,4.70
2022-09-20T03:55:46.180Z,3.50
2022-09-20T03:57:21.483Z,2.40
2022-09-20T03:58:32.858Z,3.80
2022-09-20T03:59:49.358Z,4.90
2022-09-20T04:01:32.406Z,3.60
2022-09-20T04:02:53.505Z,3.40
2022-09-20T04:04:15.008Z,3.20
2022-09-20T04:05:31.834Z,4.50
2022-09-20T04:06:39.128Z,3.80
2022-09-20T04:08:01.526Z,4.80
2022-09-20T04:09:44.411Z,3.30
2022-09-20T04:11:10.479Z,4.50
2022-09-20T04:12:49.517Z,3.20
2022-09-20T04:14:14.023Z,3.70
2022-09-20T04:15:24.536Z,3.30
2022-09-20T04:16:36.508Z,3.60
2022-09-20T04:18:25.740Z,5.10
2022-09-20T04:19:33.321Z,3.70
2022-09-20T04:20:45.305Z,3.90
2022-09-20T04:22:03.707Z,3.30
2022-09-20T04:23:39.811Z,5.50
2022-09-20T04:25:11.147Z,3.50
2022-09-20T04:26:19.997Z,6.40
2022-09-20T04:27:28.048Z,4.50
2022-09-20T04:29:04.155Z,4.80
2022-09-20T04:30:24.814Z,4.20
2022-09-20T04:31:58.394Z,10.50
2022-09-20T04:33:23.029Z,4.00
2022-09-20T04:34:57.330Z,3.40
2022-09-20T04:36:31.906Z,3.70
2022-09-20T04:37:40.176Z,5.10
2022-09-20T04:38:52.754Z,3.50
2022-09-20T04:40:11.530Z,4.60
2022-09-20T04:41:39.276Z,3.80
2022-09-20T04:43:25.066Z,4.00
2022-09-20T04:45:09.387Z,4.60
2022-09-20T04:46:29.920Z,3.70
2022-09-20T04:48:14.322Z,6.60
2022-09-20T04:49:52.524Z,4.20
2022-09-20T04:51:23.602Z,5.50
2022-09-20T04:53:07.805Z,4.10
2022-09-20T04:54:47.335Z,4.00
2022-09-20T04:56:30.041Z,4.00
2022-09-20T04:58:00.873Z,6.00
2022-09-20T04:59:37.026Z,7.70
2022-09-20T05:00:59.037Z,4.80
2022-09-20T05:02:35.001Z,5.60
2022-09-20T05:04:17.706Z,4.30
2022-09-20T05:05:51.193Z,4.70
2022-09-20T05:07:33.921Z,4.30
2022-09-20T05:09:15.411Z,5.00
2022-09-20T05:10:58.605Z,5.30
2022-09-20T05:12:29.440Z,4.30
2022-09-20T05:14:07.059Z,7.90
2022-09-20T05:15:35.500Z,5.60
2022-09-20T05:17:02.518Z,4.20
2022-09-20T05:18:40.181Z,5.40
2022-09-20T05:20:13.412Z,6.20
2022-09-20T05:21:36.016Z,5.70
2022-09-20T05:23:03.641Z,5.10
2022-09-20T05:24:53.901Z,6.20
2022-09-20T05:26:12.666Z,5.10
2022-09-20T05:27:39.705Z,9.20
2022-09-20T05:28:51.555Z,5.10
2022-09-20T05:30:08.063Z,5.30
2022-09-20T05:31:35.308Z,5.90
2022-09-20T05:32:56.305Z,5.40
2022-09-20T05:34:33.848Z,4.20
2022-09-20T05:36:08.608Z,5.40
2022-09-20T05:37:41.941Z,4.00
2022-09-20T05:39:07.309Z,4.70
2022-09-20T05:40:30.034Z,4.60
2022-09-20T05:42:10.939Z,7.30
2022-09-20T05:43:32.642Z,7.30
2022-09-20T05:45:00.401Z,6.40
2022-09-20T05:46:17.870Z,5.50
2022-09-20T05:47:33.596Z,4.80
2022-09-20T05:48:59.020Z,5.30
2022-09-20T05:50:39.983Z,5.20
2022-09-20T05:51:50.999Z,6.60
2022-09-20T05:53:35.014Z,6.20
2022-09-20T05:55:18.546Z,6.30
2022-09-20T05:56:31.506Z,5.40
2022-09-20T05:58:18.512Z,5.90
2022-09-20T05:59:42.223Z,4.50
2022-09-20T06:01:13.566Z,5.30
2022-09-20T06:02:45.443Z,4.80
2022-09-20T06:04:13.404Z,6.70
2022-09-20T06:05:51.709Z,5.00
2022-09-20T06:07:26.769Z,5.70
2022-09-20T06:09:02.104Z,6.10
2022-09-20T06:10:52.178Z,7.10
2022-09-20T06:12:06.068Z,4.80
2022-09-20T06:13:49.443Z,5.60
2022-09-20T06:15:22.273Z,8.40
2022-09-20T06:16:59.835Z,5.30
2022-09-20T06:18:16.096Z,4.70
2022-09-20T06:19:51.525Z,5.20
2022-09-20T06:21:16.188Z,5.70
2022-09-20T06:23:00.638Z,6.30
2022-09-20T06:24:08.121Z,4.80
2022-09-20T06:25:32.415Z,6.90
2022-09-20T06:26:40.006Z,4.60
2022-09-20T06:28:13.810Z,6.40
2022-09-20T06:29:21.121Z,5.50
2022-09-20T06:30:32.690Z,8.10
2022-09-20T06:31:40.431Z,5.90
2022-09-20T06:33:01.452Z,5.50
2022-09-20T06:34:12.051Z,6.20
2022-09-20T06:35:21.190Z,5.30
2022-09-20T06:36:59.024Z,7.00
2022-09-20T06:38:38.185Z,6.10
2022-09-20T06:40:41.022Z,6.40
2022-09-20T06:41:47.459Z,6.50
2022-09-20T06:42:55.659Z,8.20
2022-09-20T06:44:02.191Z,5.90
2022-09-20T06:45:08.708Z,5.80
2022-09-20T06:46:16.062Z,6.30
2022-09-20T06:47:23.852Z,6.40
2022-09-20T06:48:32.547Z,6.90
2022-09-20T06:49:41.741Z,7.50
2022-09-20T06:50:52.790Z,6.60
2022-09-20T06:52:00.112Z,5.70
2022-09-20T06:53:06.385Z,6.60
2022-09-20T06:54:15.252Z,5.50
2022-09-20T06:55:28.462Z,8.10
2022-09-20T06:56:37.775Z,4.40
2022-09-20T06:57:45.479Z,6.30
2022-09-20T06:58:55.878Z,6.00
2022-09-20T07:00:04.024Z,5.50
2022-09-20T07:01:16.178Z,6.20
2022-09-20T07:02:30.079Z,7.50
2022-09-20T07:03:36.237Z,8.80
2022-09-20T07:04:42.094Z,5.30
2022-09-20T07:05:49.486Z,6.60
2022-09-20T07:07:04.152Z,5.80
2022-09-20T07:08:15.797Z,5.70
2022-09-20T07:09:22.858Z,7.30
2022-09-20T07:10:31.550Z,5.90
2022-09-20T07:11:37.689Z,4.40
2022-09-20T07:12:43.637Z,7.10
2022-09-20T07:13:52.584Z,6.70
2022-09-20T07:15:01.386Z,6.90
2022-09-20T07:16:08.965Z,7.50
2022-09-20T07:17:15.554Z,7.20
2022-09-20T07:18:21.476Z,5.20
2022-09-20T07:19:30.711Z,6.00
2022-09-20T07:20:39.002Z,6.20
2022-09-20T07:21:46.069Z,6.30
2022-09-20T07:22:57.051Z,5.80
2022-09-20T07:24:06.086Z,5.60
2022-09-20T07:25:14.866Z,6.60
2022-09-20T07:26:26.276Z,8.50
2022-09-20T07:27:35.171Z,6.40
2022-09-20T07:28:42.463Z,7.70
2022-09-20T07:29:48.636Z,6.10
2022-09-20T07:30:56.544Z,6.50
2022-09-20T07:32:03.022Z,6.30
2022-09-20T07:33:12.766Z,6.70
2022-09-20T07:34:21.569Z,6.90
2022-09-20T07:35:30.304Z,5.80
2022-09-20T07:36:36.183Z,9.10
2022-09-20T07:37:42.453Z,5.50
2022-09-20T07:38:54.598Z,8.40
2022-09-20T07:40:00.234Z,5.40
2022-09-20T07:41:08.917Z,5.00
2022-09-20T07:42:15.024Z,6.20
2022-09-20T07:43:20.849Z,5.80
2022-09-20T07:44:28.338Z,5.60
2022-09-20T07:45:35.680Z,5.50
2022-09-20T07:46:41.471Z,5.30
2022-09-20T07:47:47.594Z,5.90
2022-09-20T07:48:54.065Z,6.60
2022-09-20T07:50:01.091Z,7.50
2022-09-20T07:51:09.170Z,5.60
2022-09-20T07:52:15.353Z,6.00
2022-09-20T07:53:21.503Z,5.00
2022-09-20T07:54:28.151Z,5.80
2022-09-20T07:55:36.267Z,6.30
2022-09-20T07:56:42.884Z,7.20
2022-09-20T07:57:50.540Z,5.20
2022-09-20T07:58:56.964Z,9.00
2022-09-20T08:00:02.454Z,7.60
2022-09-20T08:01:21.473Z,9.10
2022-09-20T08:03:53.839Z,7.80
2022-09-20T08:05:00.335Z,9.10
2022-09-20T08:06:11.950Z,7.00
2022-09-20T08:07:18.284Z,6.70
2022-09-20T08:08:24.313Z,6.00
2022-09-20T08:09:30.199Z,5.00
2022-09-20T08:10:36.821Z,5.70
2022-09-20T08:11:47.209Z,7.90
2022-09-20T08:14:25.260Z,8.70
2022-09-20T08:15:32.628Z,5.50
2022-09-20T08:16:42.285Z,7.70
2022-09-20T08:17:50.749Z,9.70
2022-09-20T08:19:00.764Z,6.40
2022-09-20T08:20:09.517Z,7.50
2022-09-20T08:21:18.504Z,8.60
2022-09-20T08:22:26.881Z,5.90
2022-09-20T08:23:41.587Z,6.90
2022-09-20T08:24:49.475Z,10.20
2022-09-20T08:25:58.495Z,8.30
2022-09-20T08:27:07.612Z,9.10
2022-09-20T08:28:16.144Z,6.70
2022-09-20T08:29:22.486Z,6.50
2022-09-20T08:30:30.012Z,5.60
2022-09-20T08:31:37.728Z,7.40
2022-09-20T08:32:44.690Z,5.90
2022-09-20T08:33:52.264Z,6.00
2022-09-20T08:34:58.738Z,7.40
2022-09-20T08:36:04.837Z,6.40
2022-09-20T08:37:10.722Z,7.40
2022-09-20T08:39:59.404Z,7.40
2022-09-20T08:41:06.829Z,6.80
2022-09-20T08:42:37.891Z,7.40
2022-09-20T08:44:05.177Z,6.40
2022-09-20T08:45:36.719Z,8.90
2022-09-20T08:46:50.716Z,7.20
2022-09-20T08:48:00.608Z,6.20
2022-09-20T08:49:10.989Z,7.70
2022-09-20T08:50:18.109Z,9.50
2022-09-20T08:51:24.743Z,10.30
2022-09-20T08:52:36.366Z,8.50
2022-09-20T08:53:53.640Z,6.60
2022-09-20T08:55:01.282Z,7.80
2022-09-20T08:56:08.278Z,8.00
2022-09-20T08:57:17.104Z,7.60
2022-09-20T08:58:23.418Z,8.50
2022-09-20T08:59:32.445Z,7.00
2022-09-20T09:00:39.920Z,7.40
2022-09-20T09:01:46.741Z,7.90
2022-09-20T09:02:57.018Z,5.90
2022-09-20T09:04:19.068Z,8.10
2022-09-20T09:05:41.027Z,7.30
2022-09-20T09:06:47.396Z,9.10
2022-09-20T09:07:55.875Z,15.70
2022-09-20T09:09:02.651Z,11.70
2022-09-20T09:10:09.655Z,12.40
2022-09-20T09:11:17.613Z,13.70
2022-09-20T09:12:27.939Z,8.80
2022-09-20T09:14:05.250Z,10.20
2022-09-20T09:15:30.871Z,8.30
2022-09-20T09:16:36.987Z,6.10
2022-09-20T09:17:44.433Z,7.50
2022-09-20T09:18:52.238Z,5.60
2022-09-20T09:20:02.689Z,8.10
2022-09-20T09:21:08.961Z,7.20
2022-09-20T09:22:23.573Z,6.60
2022-09-20T09:23:32.652Z,6.20
2022-09-20T09:24:40.285Z,6.70
2022-09-20T09:25:46.246Z,7.30
2022-09-20T09:26:52.806Z,6.20
2022-09-20T09:28:01.778Z,6.70
2022-09-20T09:29:18.266Z,7.50
2022-09-20T09:30:32.540Z,6.60
2022-09-20T09:31:40.352Z,6.90
2022-09-20T09:32:46.051Z,5.50
2022-09-20T09:33:52.130Z,7.80
2022-09-20T09:35:21.098Z,8.10
2022-09-20T09:36:27.328Z,6.40
2022-09-20T09:37:33.545Z,8.70
2022-09-20T09:38:40.750Z,6.30
2022-09-20T09:39:48.427Z,7.10
2022-09-20T09:40:59.578Z,6.80
2022-09-20T09:42:29.927Z,6.90
2022-09-20T09:43:38.018Z,7.00
2022-09-20T09:44:44.010Z,7.70
2022-09-20T09:45:50.134Z,6.20
2022-09-20T09:46:57.200Z,6.90
2022-09-20T09:48:03.766Z,5.60
2022-09-20T09:49:22.664Z,6.70
2022-09-20T09:50:34.031Z,7.20
2022-09-20T09:51:40.226Z,7.00
2022-09-20T09:53:00.060Z,9.00
2022-09-20T09:54:06.186Z,6.90
2022-09-20T09:55:14.492Z,8.40
2022-09-20T09:56:22.406Z,6.50
2022-09-20T09:57:44.208Z,6.80
2022-09-20T09:59:11.707Z,7.10
2022-09-20T10:00:24.590Z,5.20
2022-09-20T10:01:40.880Z,9.00
2022-09-20T10:03:12.053Z,9.00
2022-09-20T10:04:30.121Z,6.80
2022-09-20T10:06:13.046Z,6.90
2022-09-20T10:07:42.690Z,7.60
2022-09-20T10:09:25.189Z,6.60
2022-09-20T10:11:00.530Z,7.70
2022-09-20T10:12:34.736Z,7.90
2022-09-20T10:14:00.249Z,12.30
2022-09-20T10:15:11.664Z,11.20
2022-09-20T10:16:37.775Z,12.30
2022-09-20T10:17:45.541Z,10.20
2022-09-20T10:18:56.560Z,9.70
2022-09-20T10:20:40.420Z,9.70
2022-09-20T10:21:52.994Z,8.60
2022-09-20T10:25:10.885Z,9.10
2022-09-20T10:26:22.561Z,8.70
2022-09-20T10:27:59.219Z,9.40
2022-09-20T10:29:41.611Z,9.20
2022-09-20T10:30:56.112Z,9.70
2022-09-20T10:32:15.422Z,7.50
2022-09-20T10:33:48.907Z,8.90
2022-09-20T10:35:23.208Z,9.50
2022-09-20T10:36:34.788Z,8.10
2022-09-20T10:37:49.526Z,11.10
2022-09-20T10:39:22.221Z,7.90
2022-09-20T10:41:07.691Z,6.10
2022-09-20T10:42:50.528Z,8.00
2022-09-20T10:44:20.920Z,9.00
2022-09-20T10:46:30.386Z,8.60
2022-09-20T10:47:21.116Z,9.20
2022-09-20T10:48:33.363Z,8.80
2022-09-20T10:50:10.119Z,6.80
2022-09-20T10:51:29.266Z,9.20
2022-09-20T10:52:56.718Z,8.50
2022-09-20T10:54:27.301Z,9.80
2022-09-20T10:55:41.210Z,8.80
2022-09-20T10:56:50.980Z,8.30
2022-09-20T10:58:09.973Z,9.10
2022-09-20T10:59:27.481Z,8.60
2022-09-20T11:00:55.129Z,11.40
2022-09-20T11:02:28.970Z,14.10
2022-09-20T11:04:14.263Z,9.20
2022-09-20T11:05:40.274Z,13.50
2022-09-20T11:07:19.087Z,9.30
2022-09-20T11:08:27.128Z,11.90
2022-09-20T11:09:38.685Z,7.00
2022-09-20T11:10:46.248Z,10.70
2022-09-20T11:11:56.185Z,8.40
2022-09-20T11:13:56.950Z,6.40
2022-09-20T11:15:13.998Z,9.80
2022-09-20T11:16:23.865Z,8.70
2022-09-20T11:17:38.229Z,9.60
2022-09-20T11:18:51.204Z,8.30
2022-09-20T11:20:07.710Z,9.40
2022-09-20T11:21:19.870Z,14.30
2022-09-20T11:22:40.564Z,8.10
2022-09-20T11:24:24.472Z,11.00
2022-09-20T11:25:45.471Z,8.30
2022-09-20T11:27:05.301Z,9.50
2022-09-20T11:28:26.061Z,8.00
2022-09-20T11:30:02.565Z,11.10
2022-09-20T11:31:34.598Z,10.80
2022-09-20T11:32:54.221Z,9.00
2022-09-20T11:34:33.499Z,8.30
2022-09-20T11:35:47.744Z,7.90
2022-09-20T11:37:03.633Z,6.80
2022-09-20T11:38:15.559Z,9.80
2022-09-20T11:39:41.564Z,7.90
2022-09-20T11:41:03.284Z,9.80
2022-09-20T11:42:15.989Z,10.10
2022-09-20T11:43:22.562Z,10.00
2022-09-20T11:44:28.247Z,9.10
2022-09-20T11:45:34.820Z,8.60
2022-09-20T11:47:03.478Z,6.60
2022-09-20T11:48:12.558Z,8.80
2022-09-20T11:49:31.738Z,7.90
2022-09-20T11:51:07.265Z,7.50
2022-09-20T11:52:50.217Z,8.00
2022-09-20T11:54:09.768Z,8.30
2022-09-20T11:55:29.320Z,9.20
2022-09-20T11:56:35.710Z,8.00
2022-09-20T11:57:42.050Z,8.90
2022-09-20T11:58:52.006Z,5.00
2022-09-20T11:59:58.478Z,10.20
2022-09-20T12:01:04.267Z,6.20
2022-09-20T12:02:45.968Z,8.10
2022-09-20T12:04:00.262Z,8.70
2022-09-20T12:05:46.531Z,7.20
2022-09-20T12:07:42.489Z,7.80
2022-09-20T12:08:51.499Z,7.80
2022-09-20T12:10:02.287Z,6.50
2022-09-20T12:11:12.708Z,7.40
2022-09-20T12:12:24.419Z,8.10
2022-09-20T12:13:36.019Z,9.00
2022-09-20T12:14:43.007Z,10.00
2022-09-20T12:16:00.822Z,8.80
2022-09-20T12:17:07.124Z,7.60
2022-09-20T12:18:32.154Z,12.00
2022-09-20T12:19:39.668Z,7.70
2022-09-20T12:20:46.010Z,6.90
2022-09-20T12:22:00.834Z,9.70
2022-09-20T12:23:42.369Z,8.70
2022-09-20T12:24:49.378Z,9.30
2022-09-20T12:26:08.658Z,8.90
2022-09-20T12:27:34.133Z,9.10
2022-09-20T12:28:44.515Z,9.30
2022-09-20T12:29:55.987Z,11.00
2022-09-20T12:31:34.956Z,10.40
2022-09-20T12:32:52.821Z,10.20
2022-09-20T12:34:12.343Z,9.60
2022-09-20T12:36:00.501Z,8.00
2022-09-20T12:37:08.410Z,6.70
2022-09-20T12:38:31.722Z,7.70
2022-09-20T12:39:40.617Z,13.60
2022-09-20T12:41:14.924Z,11.20
2022-09-20T12:42:32.031Z,9.70
2022-09-20T12:43:40.345Z,10.70
2022-09-20T12:44:52.089Z,12.40
2022-09-20T12:46:03.849Z,9.00
2022-09-20T12:47:13.753Z,8.30
2022-09-20T12:48:22.994Z,9.30
2022-09-20T12:50:02.247Z,8.80
2022-09-20T12:51:39.848Z,8.50
2022-09-20T12:52:59.719Z,10.70
2022-09-20T12:54:09.229Z,8.10
2022-09-20T12:55:33.167Z,10.50
2022-09-20T12:56:41.586Z,7.30
2022-09-20T12:57:49.380Z,9.10
2022-09-20T12:58:58.346Z,9.70
2022-09-20T13:00:06.887Z,8.50
2022-09-20T13:01:14.630Z,7.80
2022-09-20T13:02:56.344Z,9.20
2022-09-20T13:04:40.082Z,9.50
2022-09-20T13:05:47.729Z,7.60
2022-09-20T13:07:57.881Z,9.10
2022-09-20T13:09:05.989Z,7.30
2022-09-20T13:10:38.810Z,7.50
2022-09-20T13:12:12.181Z,7.60
2022-09-20T13:13:45.524Z,6.40
2022-09-20T13:14:53.229Z,9.90
2022-09-20T13:15:59.955Z,7.40
2022-09-20T13:17:32.495Z,8.60
2022-09-20T13:18:38.647Z,8.20
2022-09-20T13:19:47.863Z,7.10
2022-09-20T13:20:56.865Z,8.70
2022-09-20T13:22:03.785Z,7.00
2022-09-20T13:23:10.986Z,7.80
2022-09-20T13:24:19.403Z,8.50
2022-09-20T13:25:26.143Z,7.10
2022-09-20T13:26:41.904Z,7.60
2022-09-20T13:28:10.464Z,9.10
2022-09-20T13:29:33.895Z,9.40
2022-09-20T13:30:43.206Z,7.70
2022-09-20T13:31:50.328Z,9.20
2022-09-20T13:33:00.077Z,10.80
2022-09-20T13:34:20.401Z,10.10
2022-09-20T13:35:30.516Z,7.50
2022-09-20T13:36:39.324Z,8.20
2022-09-20T13:37:55.172Z,8.00
2022-09-20T13:39:01.305Z,6.30
2022-09-20T13:40:07.751Z,9.80
2022-09-20T13:41:13.916Z,7.80
2022-09-20T13:42:21.595Z,8.60
2022-09-20T13:43:39.436Z,13.20
2022-09-20T13:44:45.555Z,10.50
2022-09-20T13:45:54.529Z,9.80
2022-09-20T13:47:00.661Z,10.10
2022-09-20T13:48:06.565Z,10.40
2022-09-20T13:49:24.176Z,12.20
2022-09-20T13:50:32.348Z,12.70
2022-09-20T13:51:38.341Z,11.10
2022-09-20T13:52:57.399Z,11.40
2022-09-20T13:54:25.729Z,9.90
2022-09-20T13:55:33.768Z,13.00
2022-09-20T13:56:39.587Z,13.00
2022-09-20T13:57:48.750Z,9.70
2022-09-20T13:58:54.894Z,10.80
2022-09-20T14:00:00.929Z,8.50
2022-09-20T14:01:31.239Z,8.50
2022-09-20T14:02:37.292Z,9.30
2022-09-20T14:03:43.034Z,11.00
2022-09-20T14:04:51.222Z,9.00
2022-09-20T14:06:02.462Z,12.20
2022-09-20T14:07:09.134Z,7.80
2022-09-20T14:08:27.789Z,8.10
2022-09-20T14:09:35.005Z,9.70
2022-09-20T14:10:44.875Z,9.30
2022-09-20T14:11:51.280Z,11.50
2022-09-20T14:13:02.816Z,11.30
2022-09-20T14:14:10.547Z,9.20
2022-09-20T14:15:17.602Z,10.20
2022-09-20T14:16:29.638Z,9.70
2022-09-20T14:17:36.963Z,17.20
2022-09-20T14:18:43.116Z,10.50
2022-09-20T14:19:50.601Z,13.10
2022-09-20T14:20:56.781Z,12.90
2022-09-20T14:22:06.511Z,16.20
2022-09-20T14:24:03.114Z,12.80
2022-09-20T14:25:15.156Z,10.70
2022-09-20T14:27:01.225Z,14.20
2022-09-20T14:28:22.830Z,10.00
2022-09-20T14:29:41.751Z,9.70
2022-09-20T14:30:48.062Z,10.00
2022-09-20T14:31:54.014Z,9.20
2022-09-20T14:33:01.760Z,12.50
2022-09-20T14:34:13.174Z,12.10
2022-09-20T14:35:25.101Z,10.20
2022-09-20T14:36:31.479Z,12.90
2022-09-20T14:37:47.300Z,10.40
2022-09-20T14:39:03.458Z,11.10
2022-09-20T14:40:29.087Z,12.20
2022-09-20T14:41:39.857Z,10.90
2022-09-20T14:42:47.550Z,11.80
2022-09-20T14:43:57.792Z,11.90
2022-09-20T14:45:05.237Z,12.10
2022-09-20T14:46:18.140Z,9.80
2022-09-20T14:47:59.591Z,11.30
2022-09-20T14:49:24.130Z,10.10
2022-09-20T14:50:38.316Z,8.10
2022-09-20T14:51:45.579Z,10.90
2022-09-20T14:53:19.615Z,13.50
2022-09-20T14:54:32.804Z,10.40
2022-09-20T14:55:58.705Z,10.30
2022-09-20T14:57:05.579Z,13.60
2022-09-20T14:58:17.165Z,10.90
2022-09-20T14:59:31.046Z,9.40
2022-09-20T15:01:06.660Z,11.00
2022-09-20T15:02:14.669Z,8.70
2022-09-20T15:03:44.854Z,8.70
2022-09-20T15:05:00.932Z,10.50
2022-09-20T15:06:11.027Z,8.10
2022-09-20T15:07:17.024Z,10.30
2022-09-20T15:08:22.994Z,8.10
2022-09-20T15:09:28.692Z,7.20
2022-09-20T15:10:34.664Z,10.20
2022-09-20T15:11:41.471Z,7.80
2022-09-20T15:12:47.300Z,7.80
2022-09-20T15:13:53.515Z,10.70
2022-09-20T15:15:01.249Z,14.70
2022-09-20T15:16:07.738Z,8.00
2022-09-20T15:17:23.203Z,8.00
2022-09-20T15:18:35.322Z,9.00
2022-09-20T15:19:41.743Z,10.10
2022-09-20T15:20:47.903Z,7.20
2022-09-20T15:21:54.821Z,10.50
2022-09-20T15:23:01.113Z,8.50
2022-09-20T15:24:09.103Z,9.90
2022-09-20T15:25:25.736Z,9.10
2022-09-20T15:26:35.004Z,8.70
2022-09-20T15:27:41.328Z,10.70
2022-09-20T15:28:50.077Z,9.50
2022-09-20T15:29:57.040Z,10.40
2022-09-20T15:31:05.663Z,8.70
2022-09-20T15:32:17.962Z,8.30
2022-09-20T15:33:25.546Z,8.20
2022-09-20T15:34:31.906Z,9.60
2022-09-20T15:35:43.799Z,11.10
2022-09-20T15:36:51.755Z,11.10
2022-09-20T15:37:57.714Z,10.50
2022-09-20T15:39:03.870Z,11.00
2022-09-20T15:40:10.358Z,11.20
2022-09-20T15:41:16.375Z,12.00
2022-09-20T15:42:22.432Z,12.20
2022-09-20T15:43:31.571Z,11.70
2022-09-20T15:44:37.487Z,11.80
2022-09-20T15:45:50.682Z,11.20
2022-09-20T15:46:58.689Z,11.80
2022-09-20T15:48:04.586Z,12.00
2022-09-20T15:49:12.524Z,11.80
2022-09-20T15:50:19.636Z,13.00
2022-09-20T15:51:27.116Z,12.60
2022-09-20T15:52:42.308Z,13.20
2022-09-20T15:53:59.689Z,11.10
2022-09-20T15:55:07.751Z,9.50
2022-09-20T15:56:21.843Z,10.70
2022-09-20T15:57:30.856Z,11.70
2022-09-20T15:58:37.866Z,12.20
2022-09-20T15:59:50.911Z,12.10
2022-09-20T16:01:02.978Z,11.90
2022-09-20T16:02:11.912Z,12.00
2022-09-20T16:03:19.671Z,11.40
2022-09-20T16:04:26.750Z,14.50
2022-09-20T16:05:32.910Z,12.40
2022-09-20T16:06:39.030Z,11.80
2022-09-20T16:07:46.701Z,10.70
2022-09-20T16:08:52.674Z,11.70
2022-09-20T16:09:59.042Z,14.30
2022-09-20T16:11:05.970Z,11.30
2022-09-20T16:12:12.683Z,10.20
2022-09-20T16:13:20.954Z,10.30
2022-09-20T16:14:31.728Z,10.50
2022-09-20T16:18:03.509Z,10.70
2022-09-20T16:19:18.419Z,10.40
2022-09-20T16:20:27.507Z,16.00
2022-09-20T16:21:33.991Z,12.00
2022-09-20T16:22:41.904Z,11.70
2022-09-20T16:23:56.412Z,13.00
2022-09-20T16:25:06.913Z,12.80
2022-09-20T16:26:22.758Z,12.60
2022-09-20T16:27:35.122Z,12.60
2022-09-20T16:28:47.533Z,11.30
2022-09-20T16:29:57.306Z,11.20
2022-09-20T16:31:03.573Z,12.40
2022-09-20T16:32:10.026Z,12.70
2022-09-20T16:33:16.589Z,11.90
2022-09-20T16:34:40.545Z,13.70
2022-09-20T16:35:48.409Z,13.80
2022-09-20T16:36:55.147Z,11.20
2022-09-20T16:38:01.349Z,10.50
2022-09-20T16:39:11.248Z,12.40
2022-09-20T16:40:23.109Z,13.80
2022-09-20T16:41:32.733Z,12.30
2022-09-20T16:42:38.886Z,10.80
2022-09-20T16:43:50.806Z,9.10
2022-09-20T16:44:58.116Z,10.10
2022-09-20T16:46:03.947Z,11.00
2022-09-20T16:47:12.498Z,12.00
2022-09-20T16:48:17.967Z,12.90
2022-09-20T16:49:27.091Z,12.80
2022-09-20T16:50:33.159Z,11.90
2022-09-20T16:51:40.130Z,9.50
2022-09-20T16:52:47.931Z,12.00
2022-09-20T16:53:56.512Z,10.80
2022-09-20T16:55:03.902Z,9.40
2022-09-20T16:56:22.693Z,11.90
2022-09-20T16:57:28.905Z,14.30
2022-09-20T16:58:35.994Z,11.20
2022-09-20T16:59:41.730Z,11.70
2022-09-20T17:00:49.235Z,10.80
2022-09-20T17:01:56.284Z,12.30
2022-09-20T17:03:17.024Z,13.40
2022-09-20T17:04:45.385Z,11.30
2022-09-20T17:12:43.961Z,11.40
2022-09-20T17:14:05.424Z,10.70
2022-09-20T17:29:10.604Z,10.70
2022-09-20T17:30:28.285Z,9.30
2022-09-20T17:31:46.886Z,11.70
2022-09-20T17:32:59.686Z,11.40
2022-09-20T17:36:29.458Z,8.40
2022-09-20T17:37:41.958Z,9.50
2022-09-20T17:41:27.188Z,8.50
2022-09-20T17:42:36.381Z,9.70
2022-09-20T17:43:55.283Z,8.80
2022-09-20T17:45:32.194Z,9.30
2022-09-20T17:46:47.649Z,8.80
2022-09-20T17:47:57.740Z,9.70
2022-09-20T17:49:07.879Z,10.90
2022-09-20T17:50:15.414Z,10.70
2022-09-20T17:51:27.364Z,8.50
2022-09-20T17:52:36.498Z,9.00
2022-09-20T17:53:42.410Z,9.10
2022-09-20T17:54:49.238Z,8.50
2022-09-20T17:55:58.839Z,8.80
2022-09-20T17:57:06.203Z,9.10
2022-09-20T17:58:13.339Z,7.00
2022-09-20T17:59:22.110Z,10.20
2022-09-20T18:00:44.337Z,7.50
2022-09-20T18:02:14.815Z,9.90
2022-09-20T18:05:38.896Z,9.30
2022-09-20T18:07:13.968Z,9.00
2022-09-20T18:08:42.500Z,8.00
2022-09-20T18:09:48.854Z,9.30
2022-09-20T18:11:14.473Z,8.40
2022-09-20T18:12:27.111Z,9.90
2022-09-20T18:15:33.022Z,8.70
2022-09-20T18:21:25.241Z,8.70
2022-09-20T18:22:31.976Z,9.70
2022-09-20T18:23:39.142Z,10.00
2022-09-20T18:24:45.550Z,6.90
2022-09-20T18:26:09.532Z,7.40
2022-09-20T18:27:19.700Z,7.80
2022-09-20T18:28:25.969Z,6.30
2022-09-20T18:29:37.140Z,7.30
2022-09-20T18:30:43.180Z,8.20
2022-09-20T18:39:10.845Z,6.70
2022-09-20T18:42:34.493Z,6.20
2022-09-20T18:43:44.580Z,5.90
2022-09-20T18:44:53.264Z,6.00
2022-09-20T18:46:02.467Z,7.00
2022-09-20T18:47:22.467Z,5.30
2022-09-20T18:50:16.869Z,5.20
2022-09-20T18:51:39.032Z,4.90
2022-09-20T18:52:51.799Z,5.80
2022-09-20T18:54:00.565Z,5.10